Главная страница
METAR-TAF:

METAR-TAF

Аэропорты :

Шанлыурфа, Турция

широта: 37-27N, долгота: 38-54E, высота над уровнем моря: 823 м

Текущие метеонаблюдения

Эта сводка был подготовлена 27 минут назад, в 19:20 UTC
Ветер 4 Узел от южный-юго-западный
Температура 22°C
Влажность 35%
Давление 1014 hPa
Видимость 10 км и более
Нет облачности ниже 1500 м, и нет кучево-дождевой облачности

METAR: LTCS 171920Z 21004KT CAVOK 22/06 Q1014 RMK RWY22 21005KT SKC

Время: 22:47 (19:47 UTC)

Прогноз

Эта сводка был подготовлена 3 часа и 7 минут назад, в 16:40 UTC
Прогноз действительный с 17-го 18 UTC до 18-го 18 UTC
Ветер 7 Узел от западный
Видимость 10 км и более
Нет облачности ниже 1500 м, и нет кучево-дождевой облачности
изменения
С 17-го 20 UTC до 17-го 22 UTC
Ветер 10 Узел от северно-северо-западный
изменения
С 18-го 07 UTC до 18-го 09 UTC
Ветер 11 Узел от западный-юго-западный

TAF: LTCS 171640Z 1718/1818 28007KT CAVOK BECMG 1720/1722 34010KT BECMG 1807/1809 24011KT

Метеонаблюдения и прогнозы для более 4000 аэропортов (сводки METAR и TAF).

Имеющиеся станции представлены на карте желтыми и красными точками.

Чтобы увидеть название станции, наведите на нее мышь.

Затем щелкните, чтобы увидеть метеонаблюдения и метеопрогнозы.

Управление картой: чтобы увеличить масштаб, щелкните зеленые кнопки с черным крестиком; чтобы уменьшить масштаб, щелкните зеленую кнопку с тире; для просмотра соседних карт щелкайте зеленые стрелки.


METAR-TAF: